Terminal Aerodrome Forecast
Issued by NWS Shreveport, LA

Home | Current Version | Previous Version | Text Only | Print | Product List | Glossary On
Versions: 1 2 3 4 5 6 7 8 9 10 11 12 13
000
FTUS44 KSHV 031158
TAFGGG
TAF
KGGG 031158Z 0312/0412 19005KT P6SM FEW010 BKN150 OVC250
      TEMPO 0312/0315 BKN010
     FM031500 21010G17KT P6SM VCTS SCT015CB OVC150
     FM031900 21010KT P6SM VCTS BKN050CB
     FM040300 13005KT P6SM VCSH BKN110
     FM040900 20008KT P6SM BKN015 OVC100=

USA.gov is the U.S. government's official web portal to all federal, state and local government web resources and services.